Terminal Aerodrome Forecast
Issued by NWS

Home | Current Version | Previous Version | Text Only | Print | Product List | Glossary On
Versions: 1 2 3 4 5 6 7 8 9 10 11 12 13
000
FTUS44 KOUN 172340
TAFWWR
TAF
KWWR 172340Z 1800/1824 07007KT P6SM BKN060
     FM180100 13005KT P6SM SCT060
     FM180900 18010KT P6SM BKN015
     FM181600 19016G23KT P6SM SCT035=

USA.gov is the U.S. government's official web portal to all federal, state and local government web resources and services.